Time;durP1;ratioP1;P1;durP2;ratioP2;P2;SDS_P1;SDS_P2;PMS_P1;PMS_P2;Temp;Humidity;BMP_temperature;BMP_pressure;BME280_temperature;BME280_humidity;BME280_pressure;Samples;Min_cycle;Max_cycle;Signal;HPM_P1;HPM_P2
2024/02/01 00:00:38;;;;;;;7.85;3.88;;;;;;;7.06;82.92;101269.81;5193680;28;20533;-74
2024/02/01 00:03:08;;;;;;;7.68;3.72;;;;;;;7.07;82.32;101266.34;5190172;28;20177;-74
2024/02/01 00:05:38;;;;;;;7.65;3.53;;;;;;;7.14;82.53;101268.00;5183442;28;20108;-75
2024/02/01 00:08:10;;;;;;;7.57;4.25;;;;;;;7.15;83.32;101260.19;5195429;28;20025;-74
2024/02/01 00:10:41;;;;;;;5.20;3.42;;;;;;;7.22;83.26;101256.63;5193844;28;20302;-74
2024/02/01 00:13:11;;;;;;;8.85;4.20;;;;;;;7.22;83.28;101264.44;5197599;28;20226;-73
2024/02/01 00:15:41;;;;;;;6.50;3.53;;;;;;;7.14;82.91;101247.22;5196400;28;20083;-74
2024/02/01 00:18:12;;;;;;;6.88;3.38;;;;;;;7.21;83.08;101246.25;5194865;28;20079;-73
2024/02/01 00:20:42;;;;;;;7.60;3.55;;;;;;;7.16;83.77;101235.94;5192230;28;20510;-74
2024/02/01 00:23:12;;;;;;;9.43;3.90;;;;;;;7.19;83.80;101237.59;5192951;28;20075;-73
2024/02/01 00:25:43;;;;;;;9.57;3.95;;;;;;;7.26;83.40;101236.69;5193768;28;20581;-74
2024/02/01 00:28:13;;;;;;;7.15;3.47;;;;;;;7.27;83.54;101228.84;5192787;28;20033;-73
2024/02/01 00:30:43;;;;;;;6.55;3.55;;;;;;;7.30;83.59;101219.28;5196282;28;20040;-74
2024/02/01 00:33:14;;;;;;;6.00;3.63;;;;;;;7.36;83.79;101219.19;5196995;28;20033;-74
2024/02/01 00:35:45;;;;;;;6.47;3.17;;;;;;;7.37;85.00;101220.06;5194188;28;20028;-72
2024/02/01 00:38:15;;;;;;;8.70;4.00;;;;;;;7.28;85.86;101208.94;5191383;28;20029;-74
2024/02/01 00:40:45;;;;;;;8.15;4.15;;;;;;;7.28;86.96;101221.94;5196707;28;20028;-75
2024/02/01 00:43:16;;;;;;;5.95;3.58;;;;;;;7.25;87.00;101214.16;5196245;28;20025;-74
2024/02/01 00:45:46;;;;;;;9.07;4.00;;;;;;;7.28;87.01;101206.31;5196047;28;20113;-75
2024/02/01 00:48:16;;;;;;;6.93;4.15;;;;;;;7.26;87.65;101211.53;5194000;28;20732;-74
2024/02/01 00:50:47;;;;;;;8.40;4.32;;;;;;;7.25;87.93;101214.16;5195002;28;20116;-74
2024/02/01 00:53:17;;;;;;;9.45;4.38;;;;;;;7.29;88.41;101206.28;5185931;28;20048;-74
2024/02/01 00:55:47;;;;;;;7.68;4.32;;;;;;;7.24;88.27;101207.25;5196434;28;20029;-74
2024/02/01 00:58:18;;;;;;;7.97;4.00;;;;;;;7.24;88.44;101197.69;5194810;28;20033;-74
2024/02/01 01:00:48;;;;;;;8.68;4.10;;;;;;;7.28;88.03;101205.44;5197150;28;20096;-75
2024/02/01 01:03:18;;;;;;;12.38;4.70;;;;;;;7.30;87.63;101213.19;5194003;28;20033;-74
2024/02/01 01:05:48;;;;;;;9.98;4.25;;;;;;;7.35;87.58;101214.03;5195455;28;20553;-74
2024/02/01 01:08:19;;;;;;;8.43;3.80;;;;;;;7.32;88.13;101219.28;5188911;28;20033;-73
2024/02/01 01:10:49;;;;;;;8.05;4.03;;;;;;;7.36;88.90;101216.59;5195250;28;20487;-74
2024/02/01 01:13:19;;;;;;;8.80;3.78;;;;;;;7.29;91.65;101221.88;5196179;28;20060;-73
2024/02/01 01:15:49;;;;;;;9.35;3.92;;;;;;;7.28;92.61;101215.84;5197137;28;20026;-75
2024/02/01 01:18:20;;;;;;;7.35;4.20;;;;;;;7.20;94.44;101226.34;5196835;28;20039;-74
2024/02/01 01:20:50;;;;;;;9.10;4.43;;;;;;;7.14;95.59;101219.47;5196351;28;20021;-73
2024/02/01 01:23:20;;;;;;;8.10;4.20;;;;;;;7.09;97.61;101226.47;5185128;28;20029;-73
2024/02/01 01:25:51;;;;;;;6.93;4.10;;;;;;;7.05;98.91;101224.78;5194569;28;20108;-75
2024/02/01 01:28:21;;;;;;;8.05;4.47;;;;;;;7.01;99.94;101228.28;5195543;28;20179;-74
2024/02/01 01:30:51;;;;;;;10.13;4.72;;;;;;;6.95;100.00;101222.31;5197441;28;20034;-75
2024/02/01 01:33:22;;;;;;;8.38;4.60;;;;;;;6.99;100.00;101226.59;5195768;28;20536;-75
2024/02/01 01:35:52;;;;;;;10.85;4.57;;;;;;;6.95;100.00;101224.91;5178521;28;20069;-75
2024/02/01 01:38:22;;;;;;;8.15;4.63;;;;;;;6.86;100.00;101225.84;5194430;28;20123;-75
2024/02/01 01:40:52;;;;;;;8.07;5.05;;;;;;;6.84;100.00;101216.34;5196579;28;20033;-75
2024/02/01 01:43:24;;;;;;;10.82;4.75;;;;;;;6.90;100.00;101216.31;5194579;28;20056;-75
2024/02/01 01:46:00;;;;;;;8.00;4.60;;;;;;;6.91;100.00;101221.47;5195952;28;20029;-75
2024/02/01 01:48:32;;;;;;;9.40;4.93;;;;;;;6.92;100.00;101219.75;5195119;28;20029;-75
2024/02/01 01:51:03;;;;;;;11.48;4.93;;;;;;;6.94;100.00;101212.78;5195045;28;20022;-75
2024/02/01 01:53:36;;;;;;;9.48;5.20;;;;;;;6.82;100.00;101207.72;5195184;28;20031;-75
2024/02/01 01:56:07;;;;;;;12.57;5.05;;;;;;;6.83;100.00;101209.44;5193581;28;20088;-75
2024/02/01 01:58:39;;;;;;;9.57;4.75;;;;;;;6.88;100.00;101212.81;5195642;28;20082;-75
2024/02/01 02:01:10;;;;;;;9.40;5.00;;;;;;;6.76;100.00;101210.38;5194467;28;20074;-75
2024/02/01 02:03:42;;;;;;;12.15;6.20;;;;;;;6.75;100.00;101201.72;5194667;28;20569;-75
2024/02/01 02:06:12;;;;;;;11.15;5.35;;;;;;;6.72;100.00;101206.06;5193956;28;20103;-75
2024/02/01 02:08:43;;;;;;;11.38;5.63;;;;;;;6.73;100.00;101207.81;5193643;28;20075;-75
2024/02/01 02:11:14;;;;;;;11.20;5.20;;;;;;;6.77;100.00;101197.34;5196808;28;20044;-74
2024/02/01 02:13:48;;;;;;;11.88;5.40;;;;;;;6.80;100.00;101204.28;5191780;28;20506;-75
2024/02/01 02:16:18;;;;;;;14.10;5.72;;;;;;;6.82;100.00;101205.13;5191324;28;20040;-76
2024/02/01 02:18:49;;;;;;;10.63;6.13;;;;;;;6.74;100.00;101199.16;5195393;28;20037;-76
2024/02/01 02:21:21;;;;;;;11.13;6.50;;;;;;;6.76;100.00;101194.78;5192946;28;20034;-74
2024/02/01 02:23:52;;;;;;;15.45;6.25;;;;;;;6.79;100.00;101192.16;5188433;28;20036;-75
2024/02/01 02:26:22;;;;;;;10.73;5.95;;;;;;;6.84;100.00;101195.56;5190188;28;20402;-75
2024/02/01 02:28:52;;;;;;;11.25;5.88;;;;;;;6.84;100.00;101192.97;5195697;28;20025;-76
2024/02/01 02:31:22;;;;;;;12.27;5.93;;;;;;;6.75;100.00;101178.34;5190833;28;20049;-76
2024/02/01 02:33:53;;;;;;;12.60;6.00;;;;;;;6.85;100.00;101181.69;5194708;28;20534;-75
2024/02/01 02:36:23;;;;;;;12.13;5.88;;;;;;;6.82;100.00;101184.34;5191425;28;20084;-75
2024/02/01 02:38:53;;;;;;;14.07;6.35;;;;;;;6.80;100.00;101173.09;5194165;28;20052;-76
2024/02/01 02:41:24;;;;;;;11.45;6.60;;;;;;;6.80;100.00;101178.28;5194540;28;20021;-76
2024/02/01 02:43:54;;;;;;;11.15;6.05;;;;;;;6.83;100.00;101168.75;5195716;28;20028;-75
2024/02/01 02:46:25;;;;;;;12.90;6.35;;;;;;;6.76;100.00;101166.22;5193178;28;20029;-74
2024/02/01 02:48:56;;;;;;;10.10;5.60;;;;;;;6.80;100.00;101173.09;5195599;28;20036;-76
2024/02/01 02:51:27;;;;;;;10.90;5.88;;;;;;;6.90;100.00;101179.94;5192365;28;20030;-75
2024/02/01 02:53:57;;;;;;;12.77;6.13;;;;;;;6.85;100.00;101155.72;5196369;28;20029;-76
2024/02/01 02:56:27;;;;;;;13.45;6.07;;;;;;;6.95;100.00;101159.94;5195097;28;20510;-76
2024/02/01 02:58:57;;;;;;;11.43;5.88;;;;;;;6.93;100.00;101161.69;5196705;28;20029;-76
2024/02/01 03:01:28;;;;;;;14.60;6.32;;;;;;;6.98;100.00;101163.38;5195369;28;20365;-76
2024/02/01 03:03:58;;;;;;;10.35;5.75;;;;;;;6.96;100.00;101164.25;5194215;28;20434;-75
2024/02/01 03:06:28;;;;;;;9.43;5.55;;;;;;;6.98;100.00;101152.97;5194412;28;20029;-75
2024/02/01 03:08:59;;;;;;;13.00;5.72;;;;;;;7.00;100.00;101147.75;5196401;28;20084;-76
2024/02/01 03:11:29;;;;;;;9.32;5.28;;;;;;;7.02;100.00;101153.78;5192254;28;20044;-76
2024/02/01 03:13:59;;;;;;;12.77;5.55;;;;;;;7.07;100.00;101141.63;5196310;28;20029;-76
2024/02/01 03:16:30;;;;;;;8.25;4.80;;;;;;;7.05;100.00;101151.13;5195456;28;20029;-75
2024/02/01 03:19:00;;;;;;;9.70;5.18;;;;;;;7.01;100.00;101155.53;5199392;28;20029;-76
2024/02/01 03:21:31;;;;;;;8.57;5.40;;;;;;;7.05;100.00;101139.03;5192360;28;20068;-75
2024/02/01 03:24:02;;;;;;;10.15;5.00;;;;;;;7.14;100.00;101146.69;5194952;28;20025;-76
2024/02/01 03:26:35;;;;;;;7.35;4.88;;;;;;;7.11;100.00;101151.09;5198513;28;20103;-76
2024/02/01 03:29:05;;;;;;;8.05;5.07;;;;;;;7.10;100.00;101144.19;5197790;28;20391;-76
2024/02/01 03:31:36;;;;;;;8.30;5.10;;;;;;;7.06;100.00;101137.28;5198661;28;20029;-76
2024/02/01 03:34:10;;;;;;;9.00;4.90;;;;;;;7.05;100.00;101145.94;5199439;28;20021;-76
2024/02/01 03:36:41;;;;;;;7.78;5.13;;;;;;;7.13;100.00;101149.31;5196814;28;20040;-76
2024/02/01 03:39:24;;;;;;;7.68;5.20;;;;;;;7.18;100.00;101155.31;5198629;28;20025;-74
2024/02/01 03:41:55;;;;;;;9.55;4.95;;;;;;;7.16;100.00;101157.06;5199339;28;20023;-74
2024/02/01 03:44:26;;;;;;;9.27;4.55;;;;;;;7.21;100.00;101160.47;5194130;28;20271;-74
2024/02/01 03:46:57;;;;;;;8.18;5.03;;;;;;;7.15;100.00;101164.03;5194552;28;20021;-74
2024/02/01 03:49:27;;;;;;;9.98;4.93;;;;;;;7.24;100.00;101166.50;5195687;28;20065;-74
2024/02/01 03:51:57;;;;;;;8.25;4.72;;;;;;;7.28;100.00;101172.53;5194667;28;20661;-72
2024/02/01 03:54:30;;;;;;;7.78;4.70;;;;;;;7.28;100.00;101169.94;5198756;28;20028;-74
2024/02/01 03:57:01;;;;;;;8.50;4.60;;;;;;;7.27;100.00;101173.41;5195406;28;20442;-73
2024/02/01 03:59:32;;;;;;;8.13;4.50;;;;;;;7.28;100.00;101179.44;5195009;28;20029;-74
2024/02/01 04:02:08;;;;;;;8.75;4.95;;;;;;;7.31;100.00;101174.19;5195838;28;20017;-73
2024/02/01 04:04:38;;;;;;;9.20;4.50;;;;;;;7.32;100.00;101185.47;5198585;28;20033;-74
2024/02/01 04:07:09;;;;;;;9.07;4.70;;;;;;;7.39;100.00;101187.09;5199670;28;20476;-74
2024/02/01 04:09:39;;;;;;;9.18;5.32;;;;;;;7.40;100.00;101176.69;5197986;28;20040;-73
2024/02/01 04:12:11;;;;;;;7.88;4.43;;;;;;;7.46;100.00;101184.41;5198605;28;20117;-73
2024/02/01 04:14:41;;;;;;;6.75;4.55;;;;;;;7.43;100.00;101189.66;5192633;28;20226;-72
2024/02/01 04:17:12;;;;;;;7.22;4.50;;;;;;;7.45;100.00;101187.88;5193458;28;20087;-74
2024/02/01 04:19:42;;;;;;;7.95;4.15;;;;;;;7.40;100.00;101194.91;5197956;28;20065;-73
2024/02/01 04:22:12;;;;;;;6.93;4.57;;;;;;;7.46;100.00;101192.22;5197524;28;20025;-73
2024/02/01 04:24:43;;;;;;;6.95;4.72;;;;;;;7.46;100.00;101194.81;5198432;28;20075;-74
2024/02/01 04:27:13;;;;;;;7.57;5.30;;;;;;;7.60;100.00;101192.88;5194105;28;20041;-73
2024/02/01 04:29:44;;;;;;;9.50;4.30;;;;;;;7.62;100.00;101205.84;5197610;28;20021;-73
2024/02/01 04:32:14;;;;;;;7.50;5.28;;;;;;;7.63;100.00;101198.03;5199101;28;20028;-73
2024/02/01 04:34:45;;;;;;;8.80;5.65;;;;;;;7.66;100.00;101213.59;5195230;28;20044;-74
2024/02/01 04:37:15;;;;;;;7.00;4.68;;;;;;;7.67;100.00;101225.72;5197512;28;20026;-74
2024/02/01 04:39:48;;;;;;;6.80;5.00;;;;;;;7.59;100.00;101219.78;5197491;28;20021;-73
2024/02/01 04:42:23;;;;;;;8.48;5.38;;;;;;;7.58;100.00;101230.19;5198534;28;20386;-73
2024/02/01 04:44:57;;;;;;;7.45;5.45;;;;;;;7.57;100.00;101234.56;5197991;28;20390;-74
2024/02/01 04:47:28;;;;;;;7.85;5.40;;;;;;;7.57;100.00;101236.28;5196824;28;20037;-74
2024/02/01 04:49:59;;;;;;;8.82;6.03;;;;;;;7.60;100.00;101239.72;5196399;28;20498;-74
2024/02/01 04:52:30;;;;;;;8.60;5.97;;;;;;;7.63;100.00;101234.47;5192950;28;20475;-74
2024/02/01 04:55:04;;;;;;;7.68;5.53;;;;;;;7.58;100.00;101238.88;5195509;28;20035;-73
2024/02/01 04:57:34;;;;;;;8.52;5.88;;;;;;;7.69;100.00;101241.34;5195985;28;20037;-74
2024/02/01 05:00:13;;;;;;;9.45;6.40;;;;;;;7.68;100.00;101245.66;5195417;28;20479;-73
2024/02/01 05:02:49;;;;;;;10.27;6.28;;;;;;;7.62;100.00;101243.16;5195297;28;20037;-74
2024/02/01 05:05:20;;;;;;;9.02;6.00;;;;;;;7.68;100.00;101237.84;5194744;28;20487;-73
2024/02/01 05:07:50;;;;;;;9.10;6.05;;;;;;;7.70;100.00;101254.28;5196261;28;20075;-73
2024/02/01 05:10:20;;;;;;;9.48;5.88;;;;;;;7.63;100.00;101244.88;5194723;28;20033;-74
2024/02/01 05:12:53;;;;;;;10.80;6.80;;;;;;;7.70;100.00;101250.84;5196452;28;20036;-74
2024/02/01 05:15:23;;;;;;;9.27;6.55;;;;;;;7.77;100.00;101253.34;5196661;28;20083;-73
2024/02/01 05:17:53;;;;;;;9.65;6.07;;;;;;;7.66;100.00;101260.44;5197702;28;20502;-74
2024/02/01 05:20:24;;;;;;;9.43;6.18;;;;;;;7.73;100.00;101258.59;5197198;28;20036;-73
2024/02/01 05:22:54;;;;;;;9.80;6.85;;;;;;;7.71;100.00;101258.63;5196706;28;20033;-73
2024/02/01 05:25:25;;;;;;;9.48;6.15;;;;;;;7.75;100.00;101257.72;5197059;28;20032;-73
2024/02/01 05:27:56;;;;;;;10.52;6.95;;;;;;;7.66;100.00;101260.44;5196590;28;20025;-74
2024/02/01 05:30:26;;;;;;;10.77;6.88;;;;;;;7.71;100.00;101266.41;5197151;28;20087;-74
2024/02/01 05:32:56;;;;;;;11.05;6.60;;;;;;;7.73;100.00;101263.81;5195692;28;20057;-74
2024/02/01 05:35:33;;;;;;;9.55;6.80;;;;;;;7.72;100.00;101269.91;5195308;28;20039;-74
2024/02/01 05:38:05;;;;;;;10.00;6.60;;;;;;;7.76;100.00;101277.66;5195689;28;20052;-73
2024/02/01 05:40:37;;;;;;;11.57;7.43;;;;;;;7.67;100.00;101288.16;5196726;28;20474;-74
2024/02/01 05:43:12;;;;;;;10.93;7.20;;;;;;;7.77;100.00;101289.78;5197129;28;20025;-74
2024/02/01 05:45:42;;;;;;;;;;;;;;;7.73;100.00;101292.44;5194630;28;20033;-72
2024/02/01 05:48:13;;;;;;;10.13;6.93;;;;;;;7.64;100.00;101300.34;5195932;28;19920;-74
2024/02/01 05:50:43;;;;;;;10.10;7.18;;;;;;;7.71;100.00;101291.59;5194457;28;20306;-73
2024/02/01 05:53:13;;;;;;;11.20;7.32;;;;;;;7.66;100.00;101304.66;5197266;28;20167;-73
2024/02/01 05:55:46;;;;;;;11.43;7.47;;;;;;;7.69;100.00;101291.59;5193090;28;20029;-73
2024/02/01 05:58:16;;;;;;;13.38;7.82;;;;;;;7.66;100.00;101304.66;5197064;28;20041;-74
2024/02/01 06:00:46;;;;;;;11.20;7.47;;;;;;;7.78;100.00;101307.13;5195940;28;20028;-74
2024/02/01 06:03:17;;;;;;;13.13;7.53;;;;;;;7.73;100.00;101308.03;5196958;28;20482;-74
2024/02/01 06:05:48;;;;;;;11.65;7.70;;;;;;;7.69;100.00;101320.22;5194364;28;20402;-73
2024/02/01 06:08:19;;;;;;;10.88;7.25;;;;;;;7.75;100.00;101322.75;5196031;28;20044;-73
2024/02/01 06:10:49;;;;;;;10.13;7.13;;;;;;;7.70;100.00;101326.28;5194170;28;20026;-73
2024/02/01 06:13:19;;;;;;;13.15;7.95;;;;;;;7.78;100.00;101332.25;5197503;28;20033;-73
2024/02/01 06:15:53;;;;;;;11.68;7.70;;;;;;;7.77;100.00;101340.94;5195392;28;20462;-73
2024/02/01 06:18:23;;;;;;;9.68;7.50;;;;;;;7.73;100.00;101342.69;5196451;28;20040;-74
2024/02/01 06:20:53;;;;;;;10.63;7.32;;;;;;;7.76;100.00;101340.09;5195940;28;20021;-74
2024/02/01 06:23:23;;;;;;;10.63;7.38;;;;;;;7.79;100.00;101346.97;5196372;28;20034;-74
2024/02/01 06:25:54;;;;;;;10.50;7.63;;;;;;;7.78;100.00;101353.06;5192830;28;20652;-74
2024/02/01 06:28:24;;;;;;;10.93;7.60;;;;;;;7.81;100.00;101359.09;5194950;28;20037;-73
2024/02/01 06:30:54;;;;;;;13.85;7.72;;;;;;;7.69;100.00;101361.00;5193766;28;20025;-74
2024/02/01 06:33:28;;;;;;;11.52;7.45;;;;;;;7.78;100.00;101363.47;5195411;28;20228;-73
2024/02/01 06:35:59;;;;;;;11.63;7.18;;;;;;;7.73;100.00;101376.53;5194482;28;20109;-74
2024/02/01 06:38:45;;;;;;;14.30;7.15;;;;;;;7.64;100.00;101371.44;5194377;28;20441;-74
2024/02/01 06:41:27;;;;;;;10.50;7.13;;;;;;;7.65;100.00;101372.28;5194097;28;20029;-73
2024/02/01 06:47:06;;;;;;;9.48;6.72;;;;;;;7.61;100.00;101384.50;5193228;28;20041;-74
2024/02/01 06:57:45;;;;;;;11.55;6.88;;;;;;;7.44;100.00;101433.22;5196627;28;20095;-73
2024/02/01 07:01:13;;;;;;;12.52;7.13;;;;;;;7.44;100.00;101438.41;5198947;28;20021;-74
2024/02/01 07:03:31;;;;;;;13.85;7.18;;;;;;;7.35;100.00;101432.44;5194738;28;20114;-74
2024/02/01 07:06:25;;;;;;;11.85;7.18;;;;;;;7.40;100.00;101444.53;5198067;28;20305;-73
2024/02/01 07:09:16;;;;;;;12.32;6.93;;;;;;;7.36;100.00;101457.56;5199081;28;20029;-73
2024/02/01 07:11:59;;;;;;;11.48;6.70;;;;;;;7.27;100.00;101459.38;5199043;28;20091;-74
2024/02/01 07:14:36;;;;;;;10.25;6.82;;;;;;;7.32;100.00;101464.50;5200291;28;20036;-74
2024/02/01 07:17:27;;;;;;;13.85;7.13;;;;;;;7.36;100.00;101466.19;5197686;28;20433;-73
2024/02/01 07:19:56;;;;;;;16.23;6.72;;;;;;;7.36;100.00;101465.34;5197690;28;20033;-74
2024/02/01 07:22:39;;;;;;;9.10;5.85;;;;;;;7.37;100.00;101470.53;5199250;28;20051;-74
2024/02/01 07:25:33;;;;;;;15.57;6.75;;;;;;;7.29;100.00;101485.34;5198237;28;20083;-74
2024/02/01 07:59:07;;;;;;;11.63;4.78;;;;;;;7.69;100.00;101543.94;5198530;28;20040;-74
2024/02/01 08:07:44;;;;;;;10.90;4.50;;;;;;;8.21;100.00;101547.81;5196341;28;20060;-74
2024/02/01 08:10:06;;;;;;;11.00;3.65;;;;;;;9.14;100.00;101551.88;5196368;28;20029;-73
2024/02/01 08:12:36;;;;;;;7.15;2.92;;;;;;;9.70;95.85;101551.88;5197774;28;20029;-74
2024/02/01 08:15:07;;;;;;;23.48;4.18;;;;;;;10.36;91.02;101548.94;5197308;28;20039;-74
2024/02/01 08:17:38;;;;;;;8.45;3.13;;;;;;;10.79;89.07;101554.16;5193911;28;20030;-74
2024/02/01 08:20:12;;;;;;;7.68;2.97;;;;;;;10.39;87.82;101561.09;5197674;28;20503;-74
2024/02/01 08:22:43;;;;;;;9.30;2.78;;;;;;;9.40;91.44;101561.03;5196065;28;20526;-73
2024/02/01 08:25:16;;;;;;;12.18;3.30;;;;;;;8.88;95.04;101580.03;5196669;28;20582;-74
2024/02/01 08:27:52;;;;;;;10.02;3.10;;;;;;;8.72;98.19;101586.31;5195902;28;20084;-74
2024/02/01 08:30:27;;;;;;;9.63;3.40;;;;;;;9.73;93.22;101580.53;5194172;28;20074;-74
2024/02/01 08:33:04;;;;;;;15.35;3.78;;;;;;;9.69;93.46;101573.63;5197918;28;20029;-72
2024/02/01 08:35:34;;;;;;;14.25;3.78;;;;;;;9.63;92.67;101579.81;5192780;28;20135;-73
2024/02/01 08:38:06;;;;;;;12.27;3.05;;;;;;;9.76;90.82;101589.19;5198585;28;20033;-75
2024/02/01 08:40:40;;;;;;;12.20;3.63;;;;;;;9.81;89.40;101591.72;5193679;28;20505;-74
2024/02/01 08:43:12;;;;;;;11.75;3.13;;;;;;;9.71;88.33;101590.13;5197049;28;20052;-73
2024/02/01 08:45:44;;;;;;;11.02;2.85;;;;;;;10.60;85.24;101585.06;5197383;28;20108;-74
2024/02/01 08:48:14;;;;;;;14.20;3.90;;;;;;;11.12;86.42;101596.19;5196352;28;20025;-74
2024/02/01 08:50:48;;;;;;;15.02;2.67;;;;;;;11.56;82.85;101588.22;5195512;28;20410;-73
2024/02/01 08:53:19;;;;;;;12.68;2.60;;;;;;;11.75;82.12;101590.38;5198214;28;20417;-74
2024/02/01 08:55:52;;;;;;;17.83;2.90;;;;;;;10.97;82.25;101599.13;5197291;28;20105;-74
2024/02/01 08:58:22;;;;;;;14.27;2.78;;;;;;;11.42;81.45;101609.44;5197483;28;20021;-74
2024/02/01 09:00:53;;;;;;;22.88;4.78;;;;;;;10.84;81.58;101605.50;5198330;28;20098;-74
2024/02/01 09:03:29;;;;;;;14.13;3.05;;;;;;;10.00;85.21;101611.41;5189236;28;20677;-73
2024/02/01 09:06:08;;;;;;;11.65;2.35;;;;;;;9.73;86.11;101614.47;5190462;28;20272;-74
2024/02/01 09:08:40;;;;;;;15.98;2.80;;;;;;;8.95;88.94;101618.19;5194200;28;20037;-74
2024/02/01 09:11:11;;;;;;;16.10;3.05;;;;;;;8.84;89.90;101624.38;5196448;28;20112;-73
2024/02/01 09:13:44;;;;;;;19.25;2.70;;;;;;;8.65;91.71;101626.38;5197060;28;20105;-73
2024/02/01 09:16:30;;;;;;;16.88;3.17;;;;;;;8.44;93.11;101637.00;5195722;28;20397;-73
2024/02/01 09:19:01;;;;;;;15.88;2.50;;;;;;;8.68;93.68;101644.56;5196987;28;20056;-74
2024/02/01 09:21:32;;;;;;;16.40;3.22;;;;;;;8.53;93.25;101633.47;5198052;28;20025;-74
2024/02/01 09:24:02;;;;;;;20.35;3.33;;;;;;;8.76;94.61;101647.94;5196665;28;20044;-71
2024/02/01 09:26:32;;;;;;;19.88;3.45;;;;;;;8.50;94.76;101644.75;5197211;28;20028;-73
2024/02/01 09:29:11;;;;;;;17.33;3.80;;;;;;;8.72;94.68;101656.69;5197469;28;20040;-72
2024/02/01 09:31:41;;;;;;;16.15;3.33;;;;;;;8.70;94.94;101649.78;5197919;28;20104;-74
2024/02/01 09:34:16;;;;;;;17.42;3.80;;;;;;;8.87;93.08;101660.88;5197377;28;20120;-74
2024/02/01 09:36:46;;;;;;;15.53;3.20;;;;;;;8.48;93.20;101656.94;5193112;28;20033;-74
2024/02/01 09:39:16;;;;;;;15.73;3.15;;;;;;;8.58;92.88;101663.78;5194388;28;20272;-73
2024/02/01 09:41:47;;;;;;;11.25;2.47;;;;;;;8.78;92.47;101668.78;5195893;28;20116;-73
2024/02/01 09:44:17;;;;;;;20.45;2.65;;;;;;;8.73;92.55;101665.38;5194343;28;20025;-74
2024/02/01 09:46:48;;;;;;;14.68;3.30;;;;;;;8.72;93.20;101671.47;5194835;28;20025;-72
2024/02/01 09:49:18;;;;;;;14.40;2.67;;;;;;;9.11;92.36;101671.88;5195584;28;20034;-72
2024/02/01 09:51:48;;;;;;;19.50;2.78;;;;;;;8.66;91.11;101667.19;5193587;28;20419;-73
2024/02/01 09:54:19;;;;;;;22.27;4.47;;;;;;;8.67;90.94;101674.13;5195955;28;20098;-73
2024/02/01 09:56:49;;;;;;;44.97;11.25;;;;;;;8.59;90.77;101675.91;5194625;28;20037;-74
2024/02/01 09:59:20;;;;;;;26.75;5.65;;;;;;;8.66;91.47;101677.59;5196220;28;20041;-73
2024/02/01 10:01:50;;;;;;;22.02;3.28;;;;;;;8.48;91.80;101685.59;5196413;28;20112;-73
2024/02/01 10:04:20;;;;;;;19.63;2.95;;;;;;;8.54;92.59;101688.13;5196165;28;20566;-74
2024/02/01 10:06:51;;;;;;;24.95;3.30;;;;;;;8.50;93.10;101701.19;5196810;28;20082;-74
2024/02/01 10:09:21;;;;;;;17.77;3.42;;;;;;;8.41;92.36;101699.53;5196034;28;20096;-74
2024/02/01 10:11:54;;;;;;;24.63;4.25;;;;;;;8.65;91.98;101694.13;5195879;28;20096;-73
2024/02/01 10:14:34;;;;;;;21.67;3.17;;;;;;;8.65;90.31;101691.50;5194389;28;20044;-74
2024/02/01 10:17:05;;;;;;;18.20;3.05;;;;;;;8.92;90.29;101693.81;5192360;28;20048;-72
2024/02/01 10:19:37;;;;;;;19.08;3.05;;;;;;;8.83;88.58;101706.06;5195807;28;20033;-72
2024/02/01 10:22:08;;;;;;;20.02;3.60;;;;;;;8.59;89.11;101694.16;5196227;28;20030;-72
2024/02/01 10:24:45;;;;;;;18.85;2.47;;;;;;;8.49;89.21;101704.69;5192792;28;20491;-73
2024/02/01 10:27:15;;;;;;;13.00;2.45;;;;;;;8.36;88.90;101709.16;5197654;28;20053;-73
2024/02/01 10:29:46;;;;;;;21.23;3.50;;;;;;;8.33;89.04;101716.09;5200571;28;20033;-73
2024/02/01 10:32:16;;;;;;;19.70;2.95;;;;;;;8.29;88.67;101715.28;5200328;28;20181;-73
2024/02/01 10:34:50;;;;;;;21.17;3.22;;;;;;;8.23;89.82;101717.91;5200601;28;20502;-74
2024/02/01 10:37:24;;;;;;;25.42;3.20;;;;;;;7.98;89.39;101720.69;5199380;28;20029;-76
2024/02/01 10:40:02;;;;;;;14.77;3.33;;;;;;;8.01;88.98;101724.13;5200310;28;20478;-76
2024/02/01 10:42:33;;;;;;;21.75;3.53;;;;;;;8.13;88.83;101724.06;5198547;28;20041;-75
2024/02/01 10:45:09;;;;;;;24.23;3.72;;;;;;;8.06;88.10;101727.56;5200446;28;20057;-75
2024/02/01 10:47:42;;;;;;;;;;;;;;;8.04;89.28;101723.25;5198149;28;20033;-75
2024/02/01 10:50:14;;;;;;;21.85;2.70;;;;;;;8.17;88.27;101710.13;5198882;28;19966;-76
2024/02/01 10:52:50;;;;;;;25.13;3.13;;;;;;;8.18;88.04;101714.50;5199296;28;20032;-75
2024/02/01 10:55:22;;;;;;;;;;;;;;;8.29;87.64;101717.91;5198567;28;20430;-75
2024/02/01 10:57:53;;;;;;;25.25;3.85;;;;;;;8.45;88.00;101727.31;5199091;28;19967;-76
2024/02/01 11:00:23;;;;;;;16.10;2.97;;;;;;;8.36;87.24;101724.78;5199007;28;20044;-76
2024/02/01 11:02:55;;;;;;;22.92;3.70;;;;;;;8.60;86.63;101727.19;5199307;28;20057;-75
2024/02/01 11:05:29;;;;;;;23.73;2.95;;;;;;;8.70;87.53;101727.97;5195042;28;20100;-75
2024/02/01 11:07:59;;;;;;;17.63;2.75;;;;;;;8.77;86.12;101716.59;5195541;28;20037;-76
2024/02/01 11:10:30;;;;;;;24.25;2.92;;;;;;;8.84;86.92;101719.09;5195467;28;20034;-75
2024/02/01 11:13:03;;;;;;;19.73;3.05;;;;;;;9.02;86.37;101713.69;5199622;28;20083;-75
2024/02/01 11:15:33;;;;;;;19.50;2.35;;;;;;;9.30;86.35;101715.97;5197269;28;20506;-74
2024/02/01 11:18:10;;;;;;;23.63;2.72;;;;;;;9.42;84.66;101707.09;5197506;28;20033;-76
2024/02/01 11:20:41;;;;;;;21.35;2.83;;;;;;;9.46;84.71;101708.81;5198895;28;20391;-75
2024/02/01 11:23:13;;;;;;;30.92;6.40;;;;;;;9.33;84.60;101702.03;5199313;28;20025;-76
2024/02/01 11:25:43;;;;;;;19.10;2.20;;;;;;;9.08;85.10;101711.00;5198208;28;20544;-76
2024/02/01 11:28:23;;;;;;;19.48;2.63;;;;;;;9.18;85.43;101691.78;5198405;28;20029;-74
2024/02/01 11:30:54;;;;;;;20.38;2.72;;;;;;;9.13;85.56;101685.75;5199725;28;20056;-76
2024/02/01 11:33:27;;;;;;;17.90;2.50;;;;;;;9.17;85.04;101682.22;5198518;28;20029;-75
2024/02/01 11:35:57;;;;;;;17.20;3.25;;;;;;;9.09;85.57;101688.41;5197738;28;20034;-76
2024/02/01 11:38:29;;;;;;;15.48;2.90;;;;;;;9.13;85.06;101683.16;5196048;28;20025;-76
2024/02/01 11:41:00;;;;;;;19.40;3.53;;;;;;;8.87;84.53;101687.78;5199563;28;20024;-76
2024/02/01 11:43:32;;;;;;;25.13;3.30;;;;;;;8.86;84.48;101688.66;5198410;28;20450;-72
2024/02/01 11:46:02;;;;;;;19.02;2.70;;;;;;;8.63;83.98;101690.66;5197906;28;20087;-73
2024/02/01 11:48:34;;;;;;;19.70;2.92;;;;;;;8.65;84.65;101691.50;5197786;28;20676;-73
2024/02/01 11:51:05;;;;;;;25.38;3.45;;;;;;;8.75;84.34;101690.53;5197766;28;20124;-71
2024/02/01 11:53:35;;;;;;;21.05;3.20;;;;;;;8.88;85.13;101699.09;5198377;28;20109;-73
2024/02/01 11:56:06;;;;;;;24.98;3.45;;;;;;;9.00;84.62;101694.59;5198502;28;20398;-74
2024/02/01 11:58:36;;;;;;;14.90;2.60;;;;;;;8.94;84.93;101699.03;5199127;28;20037;-76
2024/02/01 12:01:06;;;;;;;19.77;2.53;;;;;;;9.13;85.25;101687.50;5199694;28;20036;-75
2024/02/01 12:03:46;;;;;;;15.05;2.53;;;;;;;9.06;84.12;101697.13;5198569;28;20112;-76
2024/02/01 12:06:19;;;;;;;19.42;2.97;;;;;;;9.22;83.85;101690.84;5198772;28;20036;-75
2024/02/01 12:08:50;;;;;;;12.45;2.60;;;;;;;9.25;83.86;101696.03;5198764;28;20029;-75
2024/02/01 12:11:24;;;;;;;24.92;2.83;;;;;;;9.24;83.65;101699.50;5197700;28;20036;-75
2024/02/01 12:13:56;;;;;;;14.15;3.20;;;;;;;9.02;82.34;101698.06;5197996;28;20029;-75
2024/02/01 12:16:31;;;;;;;16.58;2.55;;;;;;;8.67;81.87;101713.19;5197188;28;20032;-75
2024/02/01 12:19:01;;;;;;;14.50;2.58;;;;;;;8.59;82.91;101711.53;5195174;28;20033;-76
2024/02/01 12:21:32;;;;;;;14.32;2.20;;;;;;;8.45;83.26;101703.88;5196202;28;20203;-74
2024/02/01 12:24:03;;;;;;;15.25;2.65;;;;;;;8.50;83.46;101707.28;5197683;28;20368;-75
2024/02/01 12:26:33;;;;;;;26.27;3.33;;;;;;;8.71;84.14;101711.44;5196342;28;20116;-75
2024/02/01 12:29:04;;;;;;;23.73;3.05;;;;;;;8.70;84.28;101707.94;5198092;28;20048;-75
2024/02/01 12:31:35;;;;;;;19.38;2.92;;;;;;;8.71;84.30;101707.06;5193452;28;20045;-75
2024/02/01 12:34:06;;;;;;;18.98;2.53;;;;;;;8.62;83.40;101703.69;5196663;28;20082;-74